createdAt,value
2023-06-01T00:00:15.193Z,9.40
2023-06-01T00:01:15.149Z,9.50
2023-06-01T00:02:15.151Z,8.30
2023-06-01T00:03:15.317Z,9.60
2023-06-01T00:04:15.139Z,9.10
2023-06-01T00:05:15.090Z,9.30
2023-06-01T00:06:15.094Z,8.70
2023-06-01T00:07:15.054Z,8.70
2023-06-01T00:08:15.043Z,8.80
2023-06-01T00:09:15.028Z,5.90
2023-06-01T00:10:15.023Z,10.90
2023-06-01T00:11:15.012Z,6.00
2023-06-01T00:12:14.986Z,8.30
2023-06-01T00:13:14.989Z,8.70
2023-06-01T00:14:14.968Z,8.50
2023-06-01T00:15:14.958Z,5.80
2023-06-01T00:16:14.990Z,7.40
2023-06-01T00:17:14.923Z,8.70
2023-06-01T00:18:14.934Z,7.50
2023-06-01T00:19:14.883Z,9.70
2023-06-01T00:20:14.903Z,6.40
2023-06-01T00:21:14.861Z,10.10
2023-06-01T00:22:14.865Z,8.00
2023-06-01T00:23:14.845Z,10.90
2023-06-01T00:24:14.851Z,8.90
2023-06-01T00:25:15.048Z,10.20
2023-06-01T00:26:14.790Z,8.10
2023-06-01T00:27:14.787Z,10.40
2023-06-01T00:28:14.770Z,10.60
2023-06-01T00:29:14.765Z,10.70
2023-06-01T00:30:14.763Z,8.60
2023-06-01T00:31:14.744Z,12.50
2023-06-01T00:32:14.716Z,9.20
2023-06-01T00:33:14.781Z,10.50
2023-06-01T00:34:14.709Z,13.70
2023-06-01T00:35:14.685Z,10.20
2023-06-01T00:36:14.668Z,8.20
2023-06-01T00:37:14.664Z,7.70
2023-06-01T00:38:14.640Z,6.70
2023-06-01T00:39:14.652Z,11.70
2023-06-01T00:40:14.620Z,8.30
2023-06-01T00:41:14.604Z,8.60
2023-06-01T00:42:14.594Z,8.40
2023-06-01T00:43:14.580Z,8.80
2023-06-01T00:44:14.571Z,8.70
2023-06-01T00:45:14.543Z,9.60
2023-06-01T00:46:14.530Z,8.20
2023-06-01T00:47:14.592Z,8.60
2023-06-01T00:48:14.533Z,12.00
2023-06-01T00:49:14.491Z,8.00
2023-06-01T00:50:14.490Z,7.50
2023-06-01T00:51:14.458Z,7.20
2023-06-01T00:52:14.465Z,9.30
2023-06-01T00:53:14.462Z,8.20
2023-06-01T00:54:14.415Z,8.40
2023-06-01T00:55:14.415Z,9.10
2023-06-01T00:56:14.398Z,7.20
2023-06-01T00:57:14.399Z,9.30
2023-06-01T00:58:14.371Z,10.10
2023-06-01T00:59:14.352Z,9.70
2023-06-01T01:00:14.335Z,6.20
2023-06-01T01:01:14.367Z,9.30
2023-06-01T01:02:14.345Z,7.00
2023-06-01T01:03:14.345Z,7.90
2023-06-01T01:04:14.381Z,7.50
2023-06-01T01:05:14.274Z,8.00
2023-06-01T01:06:14.270Z,8.50
2023-06-01T01:07:14.257Z,8.70
2023-06-01T01:08:14.226Z,8.70
2023-06-01T01:09:14.217Z,6.90
2023-06-01T01:10:14.224Z,8.60
2023-06-01T01:11:14.242Z,8.40
2023-06-01T01:12:14.208Z,10.90
2023-06-01T01:13:14.166Z,7.90
2023-06-01T01:14:14.164Z,7.60
2023-06-01T01:15:14.162Z,7.60
2023-06-01T01:16:14.135Z,8.30
2023-06-01T01:17:14.138Z,6.40
2023-06-01T01:18:14.095Z,9.20
2023-06-01T01:19:37.553Z,8.20
2023-06-01T01:20:14.069Z,6.90
2023-06-01T01:21:14.072Z,7.90
2023-06-01T01:22:14.041Z,7.10
2023-06-01T01:23:14.050Z,4.30
2023-06-01T01:24:14.033Z,6.50
2023-06-01T01:25:14.057Z,6.80
2023-06-01T01:26:14.019Z,5.00
2023-06-01T01:27:13.981Z,6.70
2023-06-01T01:28:14.009Z,5.70
2023-06-01T01:29:14.001Z,6.30
2023-06-01T01:30:13.997Z,7.40
2023-06-01T01:31:14.104Z,6.60
2023-06-01T01:32:13.992Z,4.40
2023-06-01T01:33:13.902Z,6.50
2023-06-01T01:34:13.906Z,6.70
2023-06-01T01:35:13.896Z,4.20
2023-06-01T01:36:13.864Z,7.20
2023-06-01T01:37:13.858Z,5.70
2023-06-01T01:38:13.839Z,5.30
2023-06-01T01:39:13.829Z,6.80
2023-06-01T01:40:13.818Z,5.60
2023-06-01T01:41:13.793Z,5.30
2023-06-01T01:42:13.783Z,5.50
2023-06-01T01:43:13.774Z,5.20
2023-06-01T01:44:13.784Z,5.70
2023-06-01T01:45:13.762Z,6.70
2023-06-01T01:46:13.732Z,5.10
2023-06-01T01:47:13.781Z,5.40
2023-06-01T01:48:13.735Z,5.20
2023-06-01T01:49:13.706Z,5.00
2023-06-01T01:50:13.715Z,6.10
2023-06-01T01:51:13.685Z,5.20
2023-06-01T01:52:13.659Z,4.80
2023-06-01T01:53:13.633Z,7.10
2023-06-01T01:54:13.642Z,5.20
2023-06-01T01:55:13.622Z,5.10
2023-06-01T01:56:13.590Z,4.90
2023-06-01T01:57:13.586Z,5.40
2023-06-01T01:58:13.564Z,5.40
2023-06-01T01:59:13.584Z,6.00
2023-06-01T02:00:13.552Z,5.30
2023-06-01T02:01:13.542Z,5.40
2023-06-01T02:02:13.564Z,5.40
2023-06-01T02:03:13.583Z,7.40
2023-06-01T02:04:13.500Z,6.20
2023-06-01T02:05:13.485Z,3.70
2023-06-01T02:06:13.469Z,6.10
2023-06-01T02:07:13.450Z,4.40
2023-06-01T02:08:13.450Z,5.80
2023-06-01T02:09:13.430Z,6.10
2023-06-01T02:10:13.414Z,7.20
2023-06-01T02:11:13.410Z,4.90
2023-06-01T02:12:13.383Z,5.60
2023-06-01T02:13:13.406Z,5.30
2023-06-01T02:14:13.361Z,8.00
2023-06-01T02:15:13.348Z,4.30
2023-06-01T02:16:13.380Z,5.10
2023-06-01T02:17:13.322Z,6.00
2023-06-01T02:18:13.333Z,5.90
2023-06-01T02:19:13.286Z,4.90
2023-06-01T02:20:13.295Z,6.00
2023-06-01T02:21:13.268Z,5.80
2023-06-01T02:22:13.271Z,6.10
2023-06-01T02:23:13.256Z,4.60
2023-06-01T02:24:13.216Z,4.80
2023-06-01T02:25:13.205Z,6.90
2023-06-01T02:26:13.214Z,6.40
2023-06-01T02:27:13.192Z,4.90
2023-06-01T02:28:13.175Z,5.40
2023-06-01T02:29:13.158Z,5.70
2023-06-01T02:30:13.162Z,3.40
2023-06-01T02:31:13.154Z,3.90
2023-06-01T02:32:13.141Z,4.30
2023-06-01T02:33:13.222Z,5.90
2023-06-01T02:34:13.110Z,6.50
2023-06-01T02:35:13.075Z,4.30
2023-06-01T02:36:13.097Z,6.10
2023-06-01T02:37:13.067Z,4.90
2023-06-01T02:38:13.053Z,5.20
2023-06-01T02:39:13.011Z,6.40
2023-06-01T02:40:13.016Z,4.80
2023-06-01T02:41:13.009Z,5.90
2023-06-01T02:42:13.028Z,5.20
2023-06-01T02:43:12.957Z,7.10
2023-06-01T02:44:12.963Z,4.60
2023-06-01T02:45:12.953Z,5.20
2023-06-01T02:46:12.998Z,5.00
2023-06-01T02:47:12.915Z,3.60
2023-06-01T02:48:12.904Z,6.10
2023-06-01T02:49:12.902Z,4.90
2023-06-01T02:50:12.886Z,5.70
2023-06-01T02:51:12.885Z,6.20
2023-06-01T02:52:12.867Z,5.30
2023-06-01T02:53:12.843Z,5.00
2023-06-01T02:54:12.833Z,6.20
2023-06-01T02:55:12.849Z,5.90
2023-06-01T02:56:12.821Z,5.40
2023-06-01T02:57:12.769Z,7.20
2023-06-01T02:58:12.780Z,5.20
2023-06-01T02:59:12.765Z,5.30
2023-06-01T03:00:12.769Z,5.30
2023-06-01T03:01:12.885Z,5.20
2023-06-01T03:02:12.721Z,5.20
2023-06-01T03:03:12.710Z,9.00
2023-06-01T03:04:12.739Z,9.50
2023-06-01T03:05:12.695Z,4.90
2023-06-01T03:06:12.686Z,6.50
2023-06-01T03:07:12.659Z,7.00
2023-06-01T03:08:12.648Z,7.00
2023-06-01T03:09:12.636Z,6.10
2023-06-01T03:10:12.634Z,8.30
2023-06-01T03:11:12.591Z,4.80
2023-06-01T03:12:12.600Z,6.50
2023-06-01T03:13:12.576Z,6.20
2023-06-01T03:14:12.634Z,6.70
2023-06-01T03:15:12.544Z,8.20
2023-06-01T03:16:12.598Z,4.90
2023-06-01T03:17:12.520Z,5.60
2023-06-01T03:18:12.619Z,6.40
2023-06-01T03:19:12.493Z,5.80
2023-06-01T03:20:12.495Z,7.50
2023-06-01T03:21:12.490Z,5.70
2023-06-01T03:22:12.471Z,6.40
2023-06-01T03:23:12.422Z,5.20
2023-06-01T03:24:12.442Z,8.10
2023-06-01T03:25:12.412Z,7.40
2023-06-01T03:26:12.412Z,6.70
2023-06-01T03:27:12.374Z,7.80
2023-06-01T03:28:12.397Z,4.60
2023-06-01T03:29:12.378Z,5.30
2023-06-01T03:30:12.377Z,7.20
2023-06-01T03:31:12.376Z,6.30
2023-06-01T03:32:12.340Z,4.00
2023-06-01T03:33:12.336Z,5.00
2023-06-01T03:34:12.289Z,7.70
2023-06-01T03:35:12.287Z,9.20
2023-06-01T03:36:12.292Z,6.80
2023-06-01T03:37:12.262Z,5.20
2023-06-01T03:38:12.246Z,6.30
2023-06-01T03:39:12.233Z,5.30
2023-06-01T03:40:12.256Z,7.70
2023-06-01T03:41:12.189Z,6.70
2023-06-01T03:42:12.205Z,6.90
2023-06-01T03:43:12.184Z,4.60
2023-06-01T03:44:12.165Z,6.60
2023-06-01T03:45:12.155Z,7.00
2023-06-01T03:46:12.160Z,5.50
2023-06-01T03:47:12.136Z,8.50
2023-06-01T03:48:12.168Z,8.20
2023-06-01T03:49:12.129Z,5.50
2023-06-01T03:50:12.095Z,7.40
2023-06-01T03:51:12.059Z,6.60
2023-06-01T03:52:12.092Z,6.40
2023-06-01T03:53:12.038Z,6.80
2023-06-01T03:54:12.039Z,5.50
2023-06-01T03:55:12.079Z,7.50
2023-06-01T03:56:12.016Z,5.50
2023-06-01T03:57:11.985Z,4.70
2023-06-01T03:58:11.992Z,7.30
2023-06-01T03:59:11.961Z,8.10
2023-06-01T04:00:11.954Z,8.30
2023-06-01T04:01:11.947Z,6.60
2023-06-01T04:02:11.984Z,10.30
2023-06-01T04:03:11.927Z,9.20
2023-06-01T04:04:11.958Z,6.40
2023-06-01T04:05:11.884Z,10.80
2023-06-01T04:06:11.885Z,10.50
2023-06-01T04:07:11.850Z,7.30
2023-06-01T04:08:11.858Z,8.40
2023-06-01T04:09:11.829Z,7.90
2023-06-01T04:10:11.817Z,7.30
2023-06-01T04:11:11.825Z,7.10
2023-06-01T04:12:11.793Z,7.30
2023-06-01T04:13:11.799Z,8.00
2023-06-01T04:14:11.761Z,7.40
2023-06-01T04:15:11.729Z,6.60
2023-06-01T04:16:11.819Z,10.30
2023-06-01T04:17:11.752Z,6.40
2023-06-01T04:18:11.726Z,7.20
2023-06-01T04:19:13.110Z,9.60
2023-06-01T04:20:12.635Z,7.30
2023-06-01T04:21:11.665Z,8.30
2023-06-01T04:22:11.643Z,9.70
2023-06-01T04:23:11.652Z,6.60
2023-06-01T04:24:13.791Z,7.70
2023-06-01T04:25:11.608Z,8.30
2023-06-01T04:26:11.603Z,7.70
2023-06-01T04:27:11.580Z,6.00
2023-06-01T04:28:13.396Z,6.40
2023-06-01T04:29:11.554Z,9.60
2023-06-01T04:30:11.565Z,8.70
2023-06-01T04:31:11.520Z,6.80
2023-06-01T04:32:11.610Z,7.60
2023-06-01T04:33:11.571Z,9.20
2023-06-01T04:34:11.512Z,6.90
2023-06-01T04:35:11.540Z,8.20
2023-06-01T04:36:11.453Z,7.80
2023-06-01T04:37:11.452Z,7.00
2023-06-01T04:38:11.447Z,5.80
2023-06-01T04:39:11.424Z,9.50
2023-06-01T04:40:11.473Z,7.90
2023-06-01T04:41:11.396Z,6.00
2023-06-01T04:42:11.383Z,8.10
2023-06-01T04:43:11.371Z,8.20
2023-06-01T04:44:11.375Z,10.90
2023-06-01T04:45:11.590Z,10.10
2023-06-01T04:46:11.388Z,18.80
2023-06-01T04:47:11.317Z,5.80
2023-06-01T04:48:11.386Z,7.10
2023-06-01T04:49:11.280Z,5.20
2023-06-01T04:50:11.272Z,7.00
2023-06-01T04:51:11.249Z,8.30
2023-06-01T04:52:11.245Z,4.70
2023-06-01T04:53:11.244Z,7.50
2023-06-01T04:54:11.237Z,7.70
2023-06-01T04:55:11.222Z,6.80
2023-06-01T04:56:11.196Z,6.20
2023-06-01T04:57:11.201Z,6.40
2023-06-01T04:58:11.188Z,6.10
2023-06-01T04:59:11.149Z,7.30
2023-06-01T05:00:11.147Z,9.10
2023-06-01T05:01:11.156Z,6.80
2023-06-01T05:02:11.127Z,8.70
2023-06-01T05:03:11.167Z,7.90
2023-06-01T05:04:11.177Z,8.10
2023-06-01T05:05:11.182Z,7.10
2023-06-01T05:06:11.064Z,8.50
2023-06-01T05:07:11.081Z,7.90
2023-06-01T05:08:11.037Z,7.40
2023-06-01T05:09:11.036Z,6.40
2023-06-01T05:10:11.016Z,8.40
2023-06-01T05:11:11.021Z,5.30
2023-06-01T05:12:11.072Z,5.80
2023-06-01T05:13:10.963Z,8.10
2023-06-01T05:14:10.969Z,7.10
2023-06-01T05:15:10.956Z,6.50
2023-06-01T05:16:11.021Z,4.20
2023-06-01T05:17:10.921Z,5.10
2023-06-01T05:18:10.954Z,7.90
2023-06-01T05:19:10.892Z,6.00
2023-06-01T05:20:10.903Z,5.00
2023-06-01T05:21:10.874Z,6.20
2023-06-01T05:22:10.877Z,5.80
2023-06-01T05:23:10.845Z,7.20
2023-06-01T05:24:10.848Z,7.00
2023-06-01T05:25:10.857Z,3.90
2023-06-01T05:26:10.832Z,6.10
2023-06-01T05:27:10.800Z,4.60
2023-06-01T05:28:10.782Z,4.60
2023-06-01T05:29:10.779Z,6.80
2023-06-01T05:30:10.784Z,6.30
2023-06-01T05:31:10.766Z,5.50
2023-06-01T05:32:10.727Z,6.60
2023-06-01T05:33:10.832Z,7.60
2023-06-01T05:34:10.703Z,5.60
2023-06-01T05:35:10.700Z,6.30
2023-06-01T05:36:10.694Z,6.40
2023-06-01T05:37:10.657Z,5.70
2023-06-01T05:38:10.641Z,4.70
2023-06-01T05:39:10.625Z,5.20
2023-06-01T05:40:10.668Z,6.00
2023-06-01T05:41:10.602Z,5.10
2023-06-01T05:42:10.593Z,5.30
2023-06-01T05:43:10.572Z,4.70
2023-06-01T05:44:10.594Z,6.80
2023-06-01T05:45:10.596Z,6.00
2023-06-01T05:46:10.585Z,6.00
2023-06-01T05:47:10.571Z,5.30
2023-06-01T05:48:10.600Z,5.10
2023-06-01T05:49:10.564Z,6.30
2023-06-01T05:50:10.494Z,7.20
2023-06-01T05:51:10.536Z,5.30
2023-06-01T05:52:10.473Z,5.10
2023-06-01T05:53:10.467Z,5.60
2023-06-01T05:54:10.464Z,6.20
2023-06-01T05:55:10.458Z,7.20
2023-06-01T05:56:10.440Z,5.90
2023-06-01T05:57:10.420Z,5.70
2023-06-01T05:58:10.411Z,6.60
2023-06-01T05:59:10.383Z,4.80
2023-06-01T06:00:10.373Z,4.40
2023-06-01T06:01:10.372Z,5.20
2023-06-01T06:02:10.434Z,7.30
2023-06-01T06:03:10.414Z,5.40
2023-06-01T06:04:10.414Z,5.10
2023-06-01T06:05:10.386Z,5.60
2023-06-01T06:06:10.332Z,5.80
2023-06-01T06:07:10.259Z,5.60
2023-06-01T06:08:10.314Z,6.00
2023-06-01T06:09:10.243Z,6.50
2023-06-01T06:10:10.248Z,5.10
2023-06-01T06:11:10.234Z,5.30
2023-06-01T06:12:10.226Z,6.80
2023-06-01T06:13:10.207Z,8.60
2023-06-01T06:14:10.308Z,6.70
2023-06-01T06:15:10.265Z,7.40
2023-06-01T06:16:10.185Z,6.50
2023-06-01T06:17:10.175Z,7.40
2023-06-01T06:18:10.204Z,6.70
2023-06-01T06:19:10.112Z,6.30
2023-06-01T06:20:10.136Z,9.50
2023-06-01T06:21:10.110Z,7.00
2023-06-01T06:22:10.185Z,7.30
2023-06-01T06:23:10.114Z,6.90
2023-06-01T06:24:10.096Z,7.10
2023-06-01T06:25:10.062Z,8.20
2023-06-01T06:26:10.037Z,7.00
2023-06-01T06:27:11.140Z,6.70
2023-06-01T06:28:10.078Z,6.30
2023-06-01T06:29:10.032Z,7.00
2023-06-01T06:30:10.016Z,8.20
2023-06-01T06:31:09.980Z,6.70
2023-06-01T06:32:09.993Z,8.30
2023-06-01T06:33:13.567Z,6.30
2023-06-01T06:34:10.949Z,6.10
2023-06-01T06:35:09.910Z,8.20
2023-06-01T06:36:09.912Z,8.50
2023-06-01T06:37:09.902Z,7.80
2023-06-01T06:38:09.953Z,7.10
2023-06-01T06:39:09.885Z,5.40
2023-06-01T06:40:09.851Z,8.30
2023-06-01T06:41:09.886Z,7.20
2023-06-01T06:42:09.895Z,5.20
2023-06-01T06:43:09.820Z,6.50
2023-06-01T06:44:09.793Z,6.30
2023-06-01T06:45:09.799Z,9.20
2023-06-01T06:46:09.924Z,9.40
2023-06-01T06:47:09.797Z,6.50
2023-06-01T06:48:09.767Z,6.90
2023-06-01T06:49:09.735Z,5.40
2023-06-01T06:50:09.748Z,5.60
2023-06-01T06:51:09.804Z,6.40
2023-06-01T06:52:09.733Z,7.30
2023-06-01T06:53:09.695Z,7.10
2023-06-01T06:54:09.669Z,6.30
2023-06-01T06:55:09.683Z,10.50
2023-06-01T06:56:09.658Z,6.20
2023-06-01T06:57:09.634Z,6.30
2023-06-01T06:58:09.620Z,5.90
2023-06-01T06:59:09.608Z,6.50
2023-06-01T07:00:09.663Z,6.90
2023-06-01T07:01:09.638Z,5.50
2023-06-01T07:02:09.580Z,5.40
2023-06-01T07:03:09.758Z,7.00
2023-06-01T07:04:09.649Z,7.00
2023-06-01T07:05:09.553Z,8.20
2023-06-01T07:06:09.599Z,8.00
2023-06-01T07:07:09.513Z,11.10
2023-06-01T07:08:09.502Z,9.80
2023-06-01T07:09:09.572Z,11.10
2023-06-01T07:10:09.477Z,7.60
2023-06-01T07:11:09.524Z,8.60
2023-06-01T07:12:09.486Z,9.50
2023-06-01T07:13:09.474Z,8.70
2023-06-01T07:14:09.425Z,6.40
2023-06-01T07:15:09.464Z,9.30
2023-06-01T07:16:09.520Z,9.40
2023-06-01T07:17:09.574Z,9.10
2023-06-01T07:18:09.652Z,6.70
2023-06-01T07:19:09.542Z,8.90
2023-06-01T07:20:09.364Z,7.40
2023-06-01T07:21:09.333Z,9.00
2023-06-01T07:22:09.298Z,7.00
2023-06-01T07:23:09.297Z,7.20
2023-06-01T07:24:09.344Z,7.50
2023-06-01T07:25:09.294Z,9.60
2023-06-01T07:26:09.252Z,8.70
2023-06-01T07:27:09.251Z,7.40
2023-06-01T07:28:09.401Z,7.70
2023-06-01T07:29:09.242Z,7.40
2023-06-01T07:30:09.206Z,9.90
2023-06-01T07:31:09.351Z,6.50
2023-06-01T07:32:09.363Z,8.00
2023-06-01T07:33:09.379Z,8.30
2023-06-01T07:34:09.168Z,8.20
2023-06-01T07:35:09.155Z,9.30
2023-06-01T07:36:09.142Z,10.30
2023-06-01T07:37:17.823Z,9.60
2023-06-01T07:38:10.129Z,10.10
2023-06-01T07:39:09.090Z,8.80
2023-06-01T07:40:09.186Z,9.20
2023-06-01T07:41:09.069Z,8.40
2023-06-01T07:42:09.053Z,8.60
2023-06-01T07:43:09.072Z,9.20
2023-06-01T07:44:09.038Z,7.60
2023-06-01T07:45:09.018Z,6.80
2023-06-01T07:46:09.068Z,8.90
2023-06-01T07:47:09.001Z,7.80
2023-06-01T07:48:11.002Z,7.20
2023-06-01T07:49:08.958Z,8.30
2023-06-01T07:50:08.988Z,7.60
2023-06-01T07:51:08.948Z,7.80
2023-06-01T07:52:08.921Z,7.30
2023-06-01T07:53:08.908Z,7.10
2023-06-01T07:54:08.907Z,7.90
2023-06-01T07:55:08.930Z,7.60
2023-06-01T07:56:08.878Z,8.30
2023-06-01T07:57:08.879Z,10.90
2023-06-01T07:58:08.871Z,6.80
2023-06-01T07:59:08.869Z,8.00
2023-06-01T08:00:08.821Z,8.30
2023-06-01T08:01:08.834Z,7.70
2023-06-01T08:02:08.836Z,6.40
2023-06-01T08:03:08.864Z,7.30
2023-06-01T08:04:08.754Z,6.00
2023-06-01T08:05:08.777Z,6.80
2023-06-01T08:06:08.761Z,6.80
2023-06-01T08:07:08.732Z,7.80
2023-06-01T08:08:08.711Z,8.60
2023-06-01T08:09:08.721Z,8.10
2023-06-01T08:10:08.689Z,6.00
2023-06-01T08:11:08.696Z,7.30
2023-06-01T08:12:08.663Z,7.80
2023-06-01T08:13:08.670Z,6.10
2023-06-01T08:14:08.676Z,8.80
2023-06-01T08:15:08.636Z,7.70
2023-06-01T08:16:08.610Z,8.70
2023-06-01T08:17:08.826Z,6.90
2023-06-01T08:18:08.607Z,7.90
2023-06-01T08:19:08.584Z,7.20
2023-06-01T08:20:08.621Z,5.70
2023-06-01T08:21:08.577Z,6.70
2023-06-01T08:22:08.860Z,10.80
2023-06-01T08:23:08.524Z,7.30
2023-06-01T08:24:08.503Z,7.30
2023-06-01T08:25:08.527Z,8.80
2023-06-01T08:26:08.476Z,9.60
2023-06-01T08:27:08.523Z,7.20
2023-06-01T08:28:08.472Z,6.90
2023-06-01T08:29:08.488Z,6.70
2023-06-01T08:30:08.519Z,6.30
2023-06-01T08:31:08.528Z,5.80
2023-06-01T08:32:08.475Z,7.50
2023-06-01T08:33:08.517Z,5.40
2023-06-01T08:34:08.419Z,6.30
2023-06-01T08:35:08.377Z,5.40
2023-06-01T08:36:08.409Z,7.40
2023-06-01T08:37:08.347Z,8.30
2023-06-01T08:38:08.367Z,6.50
2023-06-01T08:39:08.445Z,6.10
2023-06-01T08:40:08.318Z,7.90
2023-06-01T08:41:08.357Z,6.80
2023-06-01T08:42:10.203Z,6.20
2023-06-01T08:43:08.281Z,7.60
2023-06-01T08:44:08.273Z,7.20
2023-06-01T08:45:08.252Z,6.90
2023-06-01T08:46:08.227Z,5.80
2023-06-01T08:47:08.282Z,6.50
2023-06-01T08:48:08.232Z,10.60
2023-06-01T08:49:08.214Z,8.70
2023-06-01T08:50:08.171Z,8.70
2023-06-01T08:51:08.168Z,6.70
2023-06-01T08:52:08.145Z,9.00
2023-06-01T08:53:08.207Z,9.90
2023-06-01T08:54:08.130Z,8.20
2023-06-01T08:55:08.120Z,7.40
2023-06-01T08:56:08.096Z,8.30
2023-06-01T08:57:08.129Z,7.20
2023-06-01T08:58:08.094Z,8.90
2023-06-01T08:59:08.062Z,7.50
2023-06-01T09:00:08.070Z,6.40
2023-06-01T09:01:08.057Z,9.20
2023-06-01T09:02:08.025Z,7.40
2023-06-01T09:03:08.271Z,5.80
2023-06-01T09:04:08.024Z,6.80
2023-06-01T09:05:08.001Z,6.80
2023-06-01T09:06:07.983Z,7.90
2023-06-01T09:07:08.019Z,7.70
2023-06-01T09:08:07.956Z,7.00
2023-06-01T09:09:08.099Z,8.70
2023-06-01T09:10:08.105Z,8.40
2023-06-01T09:11:07.907Z,9.70
2023-06-01T09:12:07.910Z,7.90
2023-06-01T09:13:07.899Z,8.10
2023-06-01T09:14:07.861Z,8.60
2023-06-01T09:15:07.886Z,6.70
2023-06-01T09:16:07.858Z,6.40
2023-06-01T09:17:07.935Z,10.80
2023-06-01T09:18:08.011Z,10.40
2023-06-01T09:19:07.804Z,8.00
2023-06-01T09:20:07.807Z,8.70
2023-06-01T09:21:07.793Z,10.10
2023-06-01T09:22:07.834Z,7.40
2023-06-01T09:23:07.760Z,13.40
2023-06-01T09:24:07.726Z,12.50
2023-06-01T09:25:07.735Z,9.70
2023-06-01T09:26:07.730Z,11.10
2023-06-01T09:27:07.711Z,9.10
2023-06-01T09:28:07.687Z,7.30
2023-06-01T09:29:07.697Z,8.70
2023-06-01T09:30:07.669Z,8.90
2023-06-01T09:31:07.697Z,9.80
2023-06-01T09:32:07.649Z,8.60
2023-06-01T09:33:07.675Z,7.90
2023-06-01T09:34:07.607Z,8.70
2023-06-01T09:35:07.611Z,8.90
2023-06-01T09:36:07.596Z,8.90
2023-06-01T09:37:07.579Z,11.20
2023-06-01T09:38:07.567Z,12.20
2023-06-01T09:39:07.545Z,12.30
2023-06-01T09:40:07.546Z,12.30
2023-06-01T09:41:07.537Z,9.80
2023-06-01T09:42:07.515Z,13.80
2023-06-01T09:43:07.514Z,12.40
2023-06-01T09:44:07.482Z,10.70
2023-06-01T09:45:07.493Z,11.80
2023-06-01T09:46:07.492Z,12.00
2023-06-01T09:47:07.598Z,12.80
2023-06-01T09:48:07.486Z,12.30
2023-06-01T09:49:07.451Z,12.40
2023-06-01T09:50:07.417Z,11.20
2023-06-01T09:51:07.397Z,12.20
2023-06-01T09:52:07.442Z,13.20
2023-06-01T09:53:07.389Z,14.20
2023-06-01T09:54:07.377Z,15.50
2023-06-01T09:55:07.342Z,13.70
2023-06-01T09:56:07.321Z,13.20
2023-06-01T09:57:11.419Z,13.40
2023-06-01T09:58:07.312Z,14.10
2023-06-01T09:59:07.329Z,13.00
2023-06-01T10:00:07.312Z,14.00
2023-06-01T10:01:07.295Z,15.40
2023-06-01T10:02:07.388Z,16.90
2023-06-01T10:03:07.422Z,14.30
2023-06-01T10:04:07.454Z,16.10
2023-06-01T10:05:07.225Z,16.50
2023-06-01T10:06:07.198Z,14.40
2023-06-01T10:07:07.191Z,16.30
2023-06-01T10:08:07.194Z,14.70
2023-06-01T10:09:07.151Z,13.10
2023-06-01T10:10:07.146Z,15.40
2023-06-01T10:11:07.195Z,18.70
2023-06-01T10:12:07.118Z,15.00
2023-06-01T10:13:07.140Z,14.60
2023-06-01T10:14:07.094Z,18.10
2023-06-01T10:15:20.654Z,17.10
2023-06-01T10:16:08.181Z,15.80
2023-06-01T10:17:07.062Z,15.60
2023-06-01T10:18:07.103Z,14.00
2023-06-01T10:19:07.058Z,16.20
2023-06-01T10:20:07.017Z,15.90
2023-06-01T10:21:07.006Z,17.40
2023-06-01T10:22:07.033Z,17.90
2023-06-01T10:23:09.263Z,15.40
2023-06-01T10:24:08.020Z,17.90
2023-06-01T10:25:06.971Z,16.90
2023-06-01T10:26:06.956Z,17.20
2023-06-01T10:27:06.953Z,19.10
2023-06-01T10:28:06.919Z,14.60
2023-06-01T10:29:06.909Z,15.60
2023-06-01T10:30:06.881Z,16.10
2023-06-01T10:31:06.893Z,16.50
2023-06-01T10:32:07.047Z,15.10
2023-06-01T10:33:06.936Z,15.70
2023-06-01T10:34:06.853Z,15.00
2023-06-01T10:35:06.851Z,15.00
2023-06-01T10:36:06.844Z,17.10
2023-06-01T10:37:06.807Z,21.80
2023-06-01T10:38:06.781Z,16.80
2023-06-01T10:39:06.789Z,17.50
2023-06-01T10:40:06.762Z,18.20
2023-06-01T10:41:06.773Z,17.10
2023-06-01T10:42:06.733Z,17.30
2023-06-01T10:43:06.755Z,19.00
2023-06-01T10:44:06.723Z,18.00
2023-06-01T10:45:06.697Z,19.00
2023-06-01T10:46:06.801Z,17.90
2023-06-01T10:47:06.692Z,17.70
2023-06-01T10:48:06.665Z,15.40
2023-06-01T10:49:06.668Z,18.80
2023-06-01T10:50:06.662Z,17.80
2023-06-01T10:51:06.625Z,19.10
2023-06-01T10:52:06.603Z,17.60
2023-06-01T10:53:06.606Z,20.50
2023-06-01T10:54:06.636Z,17.80
2023-06-01T10:55:06.606Z,18.40
2023-06-01T10:56:06.571Z,16.80
2023-06-01T10:57:06.527Z,16.10
2023-06-01T10:58:06.537Z,20.10
2023-06-01T10:59:16.527Z,19.00
2023-06-01T11:00:07.568Z,19.30
2023-06-01T11:01:06.725Z,20.10
2023-06-01T11:02:06.566Z,18.50
2023-06-01T11:03:06.589Z,19.80
2023-06-01T11:04:06.500Z,20.80
2023-06-01T11:05:06.507Z,17.30
2023-06-01T11:06:07.640Z,17.50
2023-06-01T11:07:06.403Z,17.70
2023-06-01T11:08:06.430Z,17.00
2023-06-01T11:09:06.597Z,18.10
2023-06-01T11:10:06.396Z,17.40
2023-06-01T11:11:06.565Z,15.90
2023-06-01T11:12:06.341Z,18.10
2023-06-01T11:13:06.363Z,16.90
2023-06-01T11:14:06.328Z,21.20
2023-06-01T11:15:06.319Z,18.50
2023-06-01T11:17:06.290Z,17.70
2023-06-01T11:18:06.307Z,17.00
2023-06-01T11:19:06.280Z,17.00
2023-06-01T11:20:06.243Z,19.20
2023-06-01T11:21:06.271Z,18.80
2023-06-01T11:22:06.593Z,18.70
2023-06-01T11:23:06.201Z,17.70
2023-06-01T11:24:06.220Z,18.40
2023-06-01T11:25:06.180Z,18.80
2023-06-01T11:26:06.165Z,18.10
2023-06-01T11:27:06.144Z,17.80
2023-06-01T11:28:06.167Z,19.40
2023-06-01T11:29:06.145Z,20.40
2023-06-01T11:30:06.124Z,17.20
2023-06-01T11:31:06.185Z,16.40
2023-06-01T11:32:06.164Z,20.10
2023-06-01T11:33:06.091Z,14.50
2023-06-01T11:34:06.058Z,16.90
2023-06-01T11:35:06.040Z,16.00
2023-06-01T11:36:06.043Z,13.10
2023-06-01T11:37:06.035Z,14.60
2023-06-01T11:38:06.020Z,16.10
2023-06-01T11:39:16.715Z,17.50
2023-06-01T11:40:07.000Z,16.40
2023-06-01T11:41:05.981Z,19.20
2023-06-01T11:42:05.978Z,19.50
2023-06-01T11:43:05.973Z,14.80
2023-06-01T11:44:05.978Z,16.90
2023-06-01T11:45:05.952Z,15.40
2023-06-01T11:46:17.769Z,15.40
2023-06-01T11:47:07.107Z,13.40
2023-06-01T11:48:05.987Z,14.00
2023-06-01T11:49:06.083Z,14.50
2023-06-01T11:50:05.869Z,18.40
2023-06-01T11:51:05.848Z,16.90
2023-06-01T11:52:05.859Z,17.80
2023-06-01T11:53:05.889Z,17.40
2023-06-01T11:54:05.794Z,12.50
2023-06-01T11:55:05.805Z,16.10
2023-06-01T11:56:05.779Z,13.30
2023-06-01T11:57:05.769Z,14.60
2023-06-01T11:58:05.744Z,15.70
2023-06-01T11:59:05.733Z,16.90
2023-06-01T12:00:05.718Z,14.50
2023-06-01T12:01:05.978Z,15.20
2023-06-01T12:02:09.622Z,14.40
2023-06-01T12:03:05.747Z,13.40
2023-06-01T12:04:05.810Z,15.30
2023-06-01T12:05:05.644Z,15.60
2023-06-01T12:06:05.654Z,12.80
2023-06-01T12:07:05.668Z,13.90
2023-06-01T12:08:05.620Z,13.70
2023-06-01T12:09:05.626Z,16.10
2023-06-01T12:10:05.585Z,14.00
2023-06-01T12:11:05.655Z,12.50
2023-06-01T12:12:05.575Z,14.50
2023-06-01T12:13:05.542Z,13.40
2023-06-01T12:14:05.565Z,13.80
2023-06-01T12:15:05.526Z,12.50
2023-06-01T12:16:20.716Z,14.30
2023-06-01T12:17:06.618Z,13.30
2023-06-01T12:18:05.713Z,13.60
2023-06-01T12:19:05.491Z,14.60
2023-06-01T12:20:05.474Z,13.80
2023-06-01T12:21:05.464Z,12.40
2023-06-01T12:22:05.610Z,12.70
2023-06-01T12:23:05.418Z,14.10
2023-06-01T12:24:05.419Z,15.70
2023-06-01T12:25:05.479Z,13.80
2023-06-01T12:26:05.480Z,12.20
2023-06-01T12:27:05.365Z,15.80
2023-06-01T12:28:05.362Z,12.50
2023-06-01T12:29:05.366Z,13.50
2023-06-01T12:30:05.335Z,15.90
2023-06-01T12:31:05.380Z,17.70
2023-06-01T12:32:05.420Z,14.90
2023-06-01T12:33:05.385Z,13.30
2023-06-01T12:34:05.293Z,12.20
2023-06-01T12:35:05.260Z,12.90
2023-06-01T12:36:05.371Z,15.10
2023-06-01T12:37:05.234Z,19.00
2023-06-01T12:38:05.239Z,13.60
2023-06-01T12:39:05.221Z,15.50
2023-06-01T12:40:05.233Z,16.50
2023-06-01T12:41:05.522Z,15.70
2023-06-01T12:42:05.166Z,17.70
2023-06-01T12:43:05.167Z,15.50
2023-06-01T12:44:05.160Z,13.90
2023-06-01T12:45:05.124Z,14.00
2023-06-01T12:46:05.282Z,15.60
2023-06-01T12:47:05.132Z,15.30
2023-06-01T12:48:05.215Z,15.40
2023-06-01T12:49:05.086Z,15.40
2023-06-01T12:50:05.093Z,19.50
2023-06-01T12:51:05.430Z,14.90
2023-06-01T12:52:05.069Z,15.30
2023-06-01T12:53:05.175Z,13.50
2023-06-01T12:54:05.126Z,14.80
2023-06-01T12:55:05.038Z,16.00
2023-06-01T12:56:04.992Z,15.00
2023-06-01T12:57:04.992Z,14.60
2023-06-01T12:58:04.965Z,17.30
2023-06-01T12:59:04.944Z,16.70
2023-06-01T13:00:04.976Z,16.00
2023-06-01T13:01:04.926Z,14.90
2023-06-01T13:02:05.028Z,15.90
2023-06-01T13:03:04.967Z,13.00
2023-06-01T13:04:05.005Z,15.90
2023-06-01T13:05:04.866Z,17.30
2023-06-01T13:06:04.850Z,15.00
2023-06-01T13:07:04.874Z,16.10
2023-06-01T13:08:04.830Z,15.30
2023-06-01T13:09:04.831Z,14.30
2023-06-01T13:10:04.802Z,16.50
2023-06-01T13:11:04.793Z,16.40